• Join FlightAware (Why Join?)
  • Login
  • US Flag 
 
05:16AM EST


 

Airport Tracker/Info


-or-


 

Live Flight TrackerFlight Track Log ✈ TRS220 ✈ 26-Apr-2012 ✈ KICT - KATL

Flight Track Log - Related Links

Times and Time Zones

All times are in EDT time to prevent confusion due to time zone crossing. See the TRS220 flight status page for this flight to view local times or setup timezone preferences in your user account.

Time Position Orientation Groundspeed Altitude Reporting Facility
EDT Latitude Longitude Course Direction KTS MPH feet Rate Location/Type
07:25AM 37.6644 -97.4339 15° North 181 208 2,200  Level Kansas City Center
07:26AM 37.7214 -97.4150 88° East 200 230 4,000 1,320 Climbing Kansas City Center
07:27AM 37.7231 -97.3469 130° Southeast 236 272 5,100 960 Climbing Kansas City Center
07:29AM 37.6706 -97.2689 132° Southeast 278 320 6,200 1,380 Climbing Kansas City Center
07:30AM 37.6139 -97.1908 133° Southeast 290 334 8,200 2,040 Climbing Kansas City Center
07:31AM 37.5553 -97.1125 135° Southeast 300 345 10,300 1,380 Climbing Kansas City Center
07:32AM 37.4881 -97.0292 116° Southeast 318 366 11,000 1,080 Climbing Kansas City Center
07:33AM 37.4425 -96.9100 112° Southeast 357 411 12,500 1,500 Climbing Kansas City Center
07:34AM 37.4014 -96.7806 112° Southeast 370 426 14,100 1,680 Climbing Kansas City Center
07:35AM 37.3600 -96.6486 112° Southeast 391 450 15,900 1,740 Climbing Kansas City Center
07:36AM 37.3164 -96.5117 111° Southeast 410 472 17,600 1,800 Climbing Kansas City Center
07:37AM 37.2728 -96.3694 112° Southeast 420 483 19,500 1,800 Climbing Kansas City Center
07:38AM 37.2269 -96.2250 111° Southeast 431 496 21,200 1,560 Climbing Kansas City Center
07:39AM 37.1811 -96.0753 112° Southeast 442 509 22,700 1,380 Climbing Kansas City Center
07:40AM 37.1331 -95.9233 112° Southeast 455 524 24,000 1,380 Climbing Kansas City Center
07:41AM 37.0825 -95.7661 113° Southeast 469 540 25,500 1,260 Climbing Kansas City Center
07:42AM 37.0300 -95.6092 112° Southeast 482 555 26,600 1,080 Climbing Kansas City Center
07:43AM 36.9769 -95.4472 111° Southeast 493 567 27,700 960 Climbing Kansas City Center
07:44AM 36.9261 -95.2856 112° Southeast 498 573 28,600 960 Climbing Kansas City Center
07:45AM 36.8708 -95.1186 112° Southeast 503 579 29,700 1,020 Climbing Kansas City Center
07:46AM 36.8111 -94.9342 114° Southeast 503 579 30,700 960 Climbing Kansas City Center
07:47AM 36.7531 -94.7706 111° Southeast 514 592 31,700 1,020 Climbing Kansas City Center
07:48AM 36.6992 -94.5994 113° Southeast 514 592 32,800 360 Climbing Kansas City Center
07:50AM 36.5736 -94.2378 113° Southeast 519 597 33,000 60 Climbing Memphis Center
07:51AM 36.5181 -94.0725 113° Southeast 519 597 33,000  Level Memphis Center
07:52AM 36.4625 -93.9100 114° Southeast 519 597 33,000  Level Memphis Center
07:53AM 36.4025 -93.7422 114° Southeast 519 597 33,000  Level Memphis Center
07:54AM 36.3422 -93.5750 113° Southeast 519 597 33,000  Level Memphis Center
07:55AM 36.2861 -93.4106 113° Southeast 524 603 33,000  Level Memphis Center
07:56AM 36.2294 -93.2439 115° Southeast 524 603 33,000  Level Memphis Center
07:57AM 36.1686 -93.0797 114° Southeast 519 597 33,000  Level Memphis Center
07:58AM 36.1094 -92.9133 113° Southeast 531 611 33,000  Level Memphis Center
07:59AM 36.0583 -92.7678 115° Southeast 519 597 33,000  Level Memphis Center
08:00AM 35.9967 -92.6019 113° Southeast 519 597 33,000  Level Memphis Center
08:01AM 35.9392 -92.4389 114° Southeast 524 603 33,000  Level Memphis Center
08:02AM 35.8792 -92.2758 114° Southeast 524 603 33,000  Level Memphis Center
08:03AM 35.8211 -92.1133 115° Southeast 524 603 33,000  Level Memphis Center
08:04AM 35.7606 -91.9508 114° Southeast 524 603 33,000  Level Memphis Center
08:05AM 35.7022 -91.7886 115° Southeast 524 603 33,000  Level Memphis Center
08:06AM 35.6414 -91.6267 115° Southeast 518 596 33,000  Level Memphis Center
08:07AM 35.5822 -91.4675 114° Southeast 518 596 33,000  Level Memphis Center
08:08AM 35.5233 -91.3058 115° Southeast 518 596 33,000  Level Memphis Center
08:09AM 35.4639 -91.1497 115° Southeast 512 589 33,000  Level Memphis Center
08:10AM 35.4022 -90.9861 115° Southeast 507 583 33,000  Level Memphis Center
08:11AM 35.3422 -90.8281 116° Southeast 507 583 33,000  Level Memphis Center
08:12AM 35.2803 -90.6725 115° Southeast 507 583 33,000  Level Memphis Center
08:13AM 35.2200 -90.5122 115° Southeast 507 583 33,000  Level Memphis Center
08:14AM 35.1533 -90.3367 115° Southeast 507 583 33,000  Level Memphis Center
08:15AM 35.0928 -90.1794 115° Southeast 507 583 33,000  Level Memphis Center
08:16AM 35.0319 -90.0222 102° East 507 583 33,000  Level Memphis Center
08:17AM 35.0022 -89.8525 99° East 495 570 33,000  Level Memphis Center
08:18AM 34.9783 -89.6778 102° East 513 590 33,000  Level Memphis Center
08:19AM 34.9525 -89.5286 102° East 513 590 33,000  Level Memphis Center
08:20AM 34.9242 -89.3667 100° East 499 574 33,000  Level Memphis Center
08:21AM 34.8997 -89.1975 101° East 494 568 33,000  Level Memphis Center
08:22AM 34.8731 -89.0358 100° East 494 568 33,000  Level Memphis Center
08:23AM 34.8458 -88.8514 101° East 494 568 33,000  Level Memphis Center
08:24AM 34.8208 -88.6900 100° East 494 568 33,000  Level Memphis Center
08:25AM 34.7956 -88.5236 102° East 494 568 33,000  Level Memphis Center
08:26AM 34.7706 -88.3825 100° East 483 556 33,000  Level Memphis Center
08:27AM 34.7469 -88.2189 101° East 488 562 33,000  Level Memphis Center
08:28AM 34.7183 -88.0325 101° East 499 574 33,000  Level Memphis Center
08:29AM 34.6925 -87.8717 102° East 499 574 33,000  Level Memphis Center
08:30AM 34.6639 -87.7083 100° East 494 568 33,000  Level Memphis Center
08:31AM 34.6292 -87.4744 103° East 503 579 33,000  Level Atlanta Center
08:32AM 34.5981 -87.3092 104° East 503 579 33,000  Level Atlanta Center
08:33AM 34.5631 -87.1364 104° East 492 566 33,000  Level Atlanta Center
08:34AM 34.5314 -86.9789 103° East 481 554 33,000  Level Atlanta Center
08:35AM 34.5017 -86.8189 103° East 481 554 33,000 -120 Level Atlanta Center
08:36AM 34.4717 -86.6617 103° East 476 548 32,800  Descending Atlanta Center
08:37AM 34.4417 -86.5047 103° East 471 542 33,000 -3,240 Climbing Atlanta Center
08:38AM 34.4114 -86.3450 104° East 476 548 26,400 -4,440 Descending Atlanta Center
08:39AM 34.3825 -86.2083 103° East 469 540 24,200 -1,200 Descending Atlanta Center
08:40AM 34.3539 -86.0567 108° East 464 534 24,000 -120 Descending Atlanta Center
08:41AM 34.3144 -85.9100 118° Southeast 459 528 24,000  Level Atlanta Center
08:42AM 34.2517 -85.7653 119° Southeast 452 520 24,000 -840 Level Atlanta Center
08:43AM 34.1911 -85.6308 118° Southeast 448 516 22,400 -2,040 Descending Atlanta Center
08:44AM 34.1342 -85.4994 118° Southeast 453 521 20,000 -2,400 Descending Atlanta Center
08:45AM 34.0772 -85.3681 118° Southeast 442 509 17,700 -2,400 Descending Atlanta Center
08:46AM 34.0222 -85.2444 119° Southeast 432 497 15,200 -2,340 Descending Atlanta Center
08:47AM 33.9669 -85.1233 119° Southeast 424 488 13,100 -1,140 Descending Atlanta Center
08:48AM 33.9197 -85.0200 116° Southeast 374 430 13,000 -240 Descending Atlanta Center
08:49AM 33.8767 -84.9144 118° Southeast 351 404 12,700 -600 Descending Atlanta Center
08:50AM 33.8333 -84.8167 116° Southeast 341 392 12,000 -420 Descending Atlanta TRACON
08:51AM 33.8000 -84.7333 116° Southeast 295 339 12,000  Level Atlanta TRACON
08:52AM 33.7667 -84.6500 121° Southeast 288 331 12,000  Level Atlanta TRACON
08:53AM 33.7333 -84.5833 90° East 287 330 12,000 -900 Level Atlanta TRACON
08:54AM 33.7333 -84.4833 90° East 305 351 10,400 -1,740 Descending Atlanta TRACON
08:55AM 33.7333 -84.3833 90° East 301 346 8,800 -1,920 Descending Atlanta TRACON
08:56AM 33.7333 -84.3000 116° Southeast 289 333 6,800 -2,100 Descending Atlanta TRACON
08:57AM 33.7000 -84.2167 220° Southwest 278 320 4,900 -1,800 Descending Atlanta TRACON
08:58AM 33.6667 -84.2500 239° Southwest 164 189 3,400 -1,020 Descending Atlanta TRACON
08:59AM 33.6500 -84.2833 270° West 143 165 2,900 -660 Descending Atlanta TRACON
09:00AM 33.6500 -84.3333 270° West 135 155 2,200 -720 Descending Atlanta TRACON
09:01AM 33.6500 -84.3667 270° West 123 142 1,600 -600 Descending Atlanta TRACON